createdAt,value
2023-07-12T00:02:14.626Z,27.30
2023-07-12T00:04:41.761Z,27.30
2023-07-12T00:07:14.181Z,27.30
2023-07-12T00:13:33.218Z,27.30
2023-07-12T00:16:00.311Z,27.20
2023-07-12T00:18:27.791Z,27.20
2023-07-12T00:20:55.050Z,27.20
2023-07-12T00:23:22.073Z,27.20
2023-07-12T00:25:50.481Z,27.10
2023-07-12T00:28:24.913Z,27.10
2023-07-12T00:30:54.101Z,27.10
2023-07-12T00:33:21.973Z,27.00
2023-07-12T00:35:50.653Z,27.00
2023-07-12T00:38:27.355Z,27.00
2023-07-12T00:40:57.365Z,27.00
2023-07-12T00:43:55.833Z,27.00
2023-07-12T00:46:40.725Z,27.00
2023-07-12T00:49:10.636Z,27.00
2023-07-12T00:59:27.289Z,26.90
2023-07-12T01:02:03.259Z,26.90
2023-07-12T01:04:34.103Z,26.80
2023-07-12T01:07:01.656Z,26.80
2023-07-12T01:09:29.440Z,26.80
2023-07-12T01:11:57.460Z,26.80
2023-07-12T01:14:26.907Z,26.70
2023-07-12T01:17:05.892Z,26.70
2023-07-12T01:19:34.688Z,26.70
2023-07-12T01:22:02.264Z,26.70
2023-07-12T01:24:34.033Z,26.70
2023-07-12T01:27:17.336Z,26.70
2023-07-12T01:29:44.662Z,26.60
2023-07-12T01:32:12.463Z,26.60
2023-07-12T01:34:39.901Z,26.60
2023-07-12T01:37:07.068Z,26.60
2023-07-12T01:39:34.797Z,26.50
2023-07-12T01:42:02.801Z,26.50
2023-07-12T01:44:55.126Z,26.50
2023-07-12T01:47:22.410Z,26.50
2023-07-12T01:49:49.404Z,26.50
2023-07-12T01:52:16.301Z,26.50
2023-07-12T01:54:43.393Z,26.50
2023-07-12T01:57:10.398Z,26.50
2023-07-12T01:59:38.171Z,26.50
2023-07-12T02:02:05.955Z,26.40
2023-07-12T02:04:33.125Z,26.40
2023-07-12T02:07:00.137Z,26.40
2023-07-12T02:09:41.784Z,26.40
2023-07-12T02:12:09.247Z,26.40
2023-07-12T02:14:39.208Z,26.40
2023-07-12T02:17:06.353Z,26.30
2023-07-12T02:19:34.668Z,26.30
2023-07-12T02:22:01.644Z,26.30
2023-07-12T02:24:28.720Z,26.30
2023-07-12T02:26:55.758Z,26.30
2023-07-12T02:29:22.790Z,26.30
2023-07-12T02:31:49.807Z,26.30
2023-07-12T02:34:16.942Z,26.30
2023-07-12T02:36:43.947Z,26.30
2023-07-12T02:39:10.885Z,26.30
2023-07-12T02:41:37.969Z,26.40
2023-07-12T02:44:05.096Z,26.40
2023-07-12T02:46:32.147Z,26.50
2023-07-12T02:48:59.098Z,26.60
2023-07-12T02:51:29.003Z,26.60
2023-07-12T02:53:56.074Z,26.70
2023-07-12T02:56:25.434Z,26.80
2023-07-12T02:58:52.434Z,26.80
2023-07-12T03:01:19.607Z,26.90
2023-07-12T03:03:46.614Z,27.00
2023-07-12T03:06:13.996Z,27.00
2023-07-12T03:08:43.092Z,27.00
2023-07-12T03:11:11.183Z,27.10
2023-07-12T03:13:38.733Z,27.10
2023-07-12T03:16:07.476Z,27.10
2023-07-12T03:18:35.047Z,27.10
2023-07-12T03:21:09.784Z,27.10
2023-07-12T03:23:37.293Z,27.10
2023-07-12T03:26:04.810Z,27.10
2023-07-12T03:28:31.910Z,27.10
2023-07-12T03:30:59.010Z,27.10
2023-07-12T03:33:26.040Z,27.10
2023-07-12T03:35:53.271Z,27.10
2023-07-12T03:38:20.511Z,27.20
2023-07-12T03:40:48.379Z,27.20
2023-07-12T03:43:15.394Z,27.30
2023-07-12T03:45:44.331Z,27.30
2023-07-12T03:48:11.478Z,27.30
2023-07-12T03:50:47.685Z,27.40
2023-07-12T03:53:15.182Z,27.40
2023-07-12T03:55:43.943Z,27.40
2023-07-12T03:58:14.709Z,27.40
2023-07-12T04:00:43.292Z,27.40
2023-07-12T04:03:12.395Z,27.40
2023-07-12T04:05:40.422Z,27.40
2023-07-12T04:08:12.696Z,27.30
2023-07-12T04:10:42.261Z,27.30
2023-07-12T04:13:09.489Z,27.30
2023-07-12T04:15:37.283Z,27.30
2023-07-12T04:18:07.717Z,27.30
2023-07-12T04:20:39.509Z,27.30
2023-07-12T04:23:07.463Z,27.30
2023-07-12T04:25:34.665Z,27.30
2023-07-12T04:28:03.722Z,27.30
2023-07-12T04:30:30.738Z,27.30
2023-07-12T04:32:57.798Z,27.30
2023-07-12T04:35:24.808Z,27.30
2023-07-12T04:37:52.582Z,27.30
2023-07-12T04:40:19.840Z,27.30
2023-07-12T04:42:47.533Z,27.30
2023-07-12T04:45:14.900Z,27.40
2023-07-12T04:47:42.860Z,27.40
2023-07-12T04:50:12.014Z,27.50
2023-07-12T04:52:39.504Z,27.50
2023-07-12T04:55:23.273Z,27.60
2023-07-12T04:57:50.493Z,27.60
2023-07-12T05:00:18.303Z,27.60
2023-07-12T05:02:45.726Z,27.70
2023-07-12T05:05:13.259Z,27.70
2023-07-12T05:07:41.619Z,27.70
2023-07-12T05:10:12.672Z,27.70
2023-07-12T05:12:41.221Z,27.80
2023-07-12T05:15:09.894Z,27.80
2023-07-12T05:17:37.599Z,27.90
2023-07-12T05:20:09.417Z,27.90
2023-07-12T05:22:36.484Z,27.90
2023-07-12T05:25:04.404Z,28.00
2023-07-12T05:27:31.479Z,28.00
2023-07-12T05:29:58.645Z,28.10
2023-07-12T05:32:25.625Z,28.10
2023-07-12T05:34:52.654Z,28.10
2023-07-12T05:37:19.700Z,28.20
2023-07-12T05:39:46.837Z,28.20
2023-07-12T05:42:14.029Z,28.20
2023-07-12T05:44:41.143Z,28.30
2023-07-12T05:47:08.209Z,28.30
2023-07-12T05:49:37.908Z,28.30
2023-07-12T05:52:05.275Z,28.30
2023-07-12T05:54:32.347Z,28.30
2023-07-12T05:56:59.399Z,28.30
2023-07-12T05:59:26.435Z,28.40
2023-07-12T06:01:53.525Z,28.50
2023-07-12T06:04:23.003Z,28.50
2023-07-12T06:06:51.708Z,28.70
2023-07-12T06:09:19.036Z,28.80
2023-07-12T06:11:46.008Z,29.00
2023-07-12T06:14:13.021Z,29.10
2023-07-12T06:16:40.115Z,29.20
2023-07-12T06:19:07.340Z,29.40
2023-07-12T06:21:36.689Z,29.40
2023-07-12T06:24:04.100Z,29.50
2023-07-12T06:26:31.234Z,29.60
2023-07-12T06:28:58.212Z,29.70
2023-07-12T06:31:25.374Z,29.80
2023-07-12T06:33:52.414Z,29.90
2023-07-12T06:36:19.396Z,29.90
2023-07-12T06:38:47.055Z,30.00
2023-07-12T06:41:14.194Z,30.20
2023-07-12T06:43:41.336Z,30.30
2023-07-12T06:46:08.343Z,30.50
2023-07-12T06:48:35.487Z,30.60
2023-07-12T06:51:03.365Z,30.60
2023-07-12T06:53:30.373Z,30.70
2023-07-12T06:55:57.601Z,30.70
2023-07-12T06:58:24.827Z,30.70
2023-07-12T07:00:52.079Z,30.70
2023-07-12T07:03:19.819Z,30.70
2023-07-12T07:05:48.206Z,30.80
2023-07-12T07:08:17.545Z,30.90
2023-07-12T07:10:49.277Z,31.00
2023-07-12T07:13:16.298Z,31.20
2023-07-12T07:15:46.214Z,31.40
2023-07-12T07:18:13.581Z,31.50
2023-07-12T07:20:45.714Z,31.80
2023-07-12T07:23:14.057Z,32.00
2023-07-12T07:25:43.368Z,32.20
2023-07-12T07:28:11.294Z,32.40
2023-07-12T07:30:38.668Z,32.60
2023-07-12T07:33:06.295Z,32.70
2023-07-12T07:35:33.538Z,32.90
2023-07-12T07:38:00.611Z,33.00
2023-07-12T07:40:30.016Z,33.20
2023-07-12T07:42:57.012Z,33.30
2023-07-12T07:45:25.966Z,33.40
2023-07-12T07:47:53.158Z,33.60
2023-07-12T07:50:21.630Z,33.70
2023-07-12T07:52:49.197Z,33.80
2023-07-12T07:55:17.592Z,34.00
2023-07-12T07:57:44.654Z,34.10
2023-07-12T08:00:14.214Z,34.10
2023-07-12T08:02:43.598Z,34.20
2023-07-12T08:05:12.029Z,34.20
2023-07-12T08:07:47.756Z,34.20
2023-07-12T08:10:18.737Z,34.20
2023-07-12T08:12:47.386Z,34.30
2023-07-12T08:15:17.842Z,34.30
2023-07-12T08:17:45.120Z,34.40
2023-07-12T08:20:12.406Z,34.50
2023-07-12T08:22:42.328Z,34.50
2023-07-12T08:25:09.929Z,34.60
2023-07-12T08:27:37.096Z,34.70
2023-07-12T08:30:04.737Z,34.80
2023-07-12T08:32:34.731Z,34.90
2023-07-12T08:35:02.960Z,35.00
2023-07-12T08:37:30.146Z,35.10
2023-07-12T08:39:57.205Z,35.20
2023-07-12T08:42:30.904Z,35.40
2023-07-12T08:45:00.605Z,35.50
2023-07-12T08:47:38.301Z,35.50
2023-07-12T08:50:15.969Z,35.70
2023-07-12T08:52:45.942Z,35.80
2023-07-12T08:55:17.851Z,35.90
2023-07-12T08:57:45.028Z,36.00
2023-07-12T09:00:19.268Z,36.10
2023-07-12T09:02:46.396Z,36.10
2023-07-12T09:05:20.281Z,36.10
2023-07-12T09:07:58.971Z,36.20
2023-07-12T09:10:57.421Z,36.20
2023-07-12T09:13:34.898Z,36.20
2023-07-12T09:16:02.648Z,36.40
2023-07-12T09:18:36.211Z,36.50
2023-07-12T09:21:13.778Z,36.70
2023-07-12T09:23:43.426Z,36.70
2023-07-12T09:26:26.340Z,36.70
2023-07-12T09:29:13.696Z,36.70
2023-07-12T09:31:44.817Z,36.80
2023-07-12T09:34:36.982Z,36.70
2023-07-12T09:37:04.450Z,36.50
2023-07-12T09:39:31.613Z,36.40
2023-07-12T09:42:02.249Z,36.40
2023-07-12T09:44:30.632Z,36.40
2023-07-12T09:47:21.971Z,36.40
2023-07-12T09:50:02.789Z,36.50
2023-07-12T09:52:40.700Z,36.40
2023-07-12T09:55:19.950Z,36.40
2023-07-12T09:58:03.327Z,36.30
2023-07-12T10:00:52.693Z,36.20
2023-07-12T10:03:27.725Z,36.10
2023-07-12T10:06:07.185Z,36.00
2023-07-12T10:08:57.744Z,36.00
2023-07-12T10:11:30.445Z,36.00
2023-07-12T10:14:02.695Z,36.10
2023-07-12T10:16:35.902Z,36.00
2023-07-12T10:19:20.327Z,35.90
2023-07-12T10:21:52.040Z,35.80
2023-07-12T10:24:22.271Z,35.80
2023-07-12T10:26:50.639Z,36.00
2023-07-12T10:29:44.932Z,36.30
2023-07-12T10:32:22.330Z,36.30
2023-07-12T10:35:07.660Z,36.40
2023-07-12T10:37:45.022Z,36.50
2023-07-12T10:40:21.317Z,36.70
2023-07-12T10:43:00.625Z,36.80
2023-07-12T10:45:35.885Z,37.00
2023-07-12T10:48:03.845Z,37.30
2023-07-12T10:50:35.241Z,37.50
2023-07-12T10:53:17.897Z,37.60
2023-07-12T10:56:15.245Z,37.80
2023-07-12T10:59:02.964Z,37.90
2023-07-12T11:01:40.383Z,37.90
2023-07-12T11:04:27.190Z,38.00
2023-07-12T11:07:03.145Z,38.00
2023-07-12T11:09:46.836Z,38.10
2023-07-12T11:12:16.608Z,38.20
2023-07-12T11:14:46.548Z,38.00
2023-07-12T11:17:17.022Z,37.90
2023-07-12T11:19:46.082Z,37.80
2023-07-12T11:22:19.081Z,37.80
2023-07-12T11:24:46.055Z,37.60
2023-07-12T11:27:32.289Z,37.60
2023-07-12T11:30:29.092Z,37.50
2023-07-12T11:33:10.833Z,37.40
2023-07-12T11:35:48.389Z,37.40
2023-07-12T11:38:30.558Z,37.30
2023-07-12T11:41:04.250Z,37.40
2023-07-12T11:43:35.579Z,37.50
2023-07-12T11:46:10.948Z,37.60
2023-07-12T11:48:38.073Z,37.70
2023-07-12T11:51:10.147Z,37.80
2023-07-12T11:53:37.801Z,37.90
2023-07-12T11:56:06.725Z,37.90
2023-07-12T11:58:35.562Z,37.70
2023-07-12T12:01:05.250Z,37.60
2023-07-12T12:03:32.322Z,37.60
2023-07-12T12:06:00.613Z,37.60
2023-07-12T12:08:29.050Z,37.60
2023-07-12T12:10:57.844Z,37.60
2023-07-12T12:13:30.679Z,37.60
2023-07-12T12:16:16.570Z,37.60
2023-07-12T12:18:52.836Z,37.60
2023-07-12T12:21:21.090Z,37.50
2023-07-12T12:24:06.176Z,37.30
2023-07-12T12:26:37.453Z,37.20
2023-07-12T12:29:29.443Z,37.10
2023-07-12T12:32:06.905Z,37.00
2023-07-12T12:34:42.232Z,37.10
2023-07-12T12:37:12.615Z,37.10
2023-07-12T12:39:39.651Z,37.00
2023-07-12T12:42:21.397Z,37.00
2023-07-12T12:44:48.432Z,37.00
2023-07-12T12:47:20.886Z,36.90
2023-07-12T12:55:31.907Z,36.90
2023-07-12T13:05:33.178Z,37.10
2023-07-12T13:18:47.664Z,37.30
2023-07-12T13:21:25.624Z,37.30
2023-07-12T13:23:53.029Z,37.30
2023-07-12T13:26:22.513Z,37.30
2023-07-12T13:28:49.647Z,37.30
2023-07-12T13:31:22.378Z,37.40
2023-07-12T13:36:38.440Z,37.30
2023-07-12T13:46:49.989Z,36.70
2023-07-12T13:49:18.681Z,36.60
2023-07-12T13:51:47.139Z,36.40
2023-07-12T13:54:14.103Z,36.20
2023-07-12T14:01:45.435Z,36.00
2023-07-12T14:09:19.350Z,36.10
2023-07-12T14:11:46.955Z,35.90
2023-07-12T14:14:16.577Z,35.90
2023-07-12T14:16:43.826Z,35.80
2023-07-12T14:19:10.968Z,35.80
2023-07-12T14:21:39.106Z,35.70
2023-07-12T14:24:08.995Z,35.70
2023-07-12T14:26:35.999Z,35.60
2023-07-12T14:29:06.143Z,35.50
2023-07-12T14:31:37.233Z,35.40
2023-07-12T14:34:05.734Z,35.30
2023-07-12T14:36:32.816Z,35.30
2023-07-12T14:39:01.179Z,35.30
2023-07-12T14:41:30.601Z,35.30
2023-07-12T14:44:03.006Z,35.30
2023-07-12T14:46:30.101Z,35.20
2023-07-12T14:48:57.125Z,35.10
2023-07-12T14:51:25.089Z,35.00
2023-07-12T14:53:52.912Z,35.00
2023-07-12T14:56:26.340Z,35.00
2023-07-12T14:58:57.361Z,35.00
2023-07-12T15:01:29.193Z,34.90
2023-07-12T15:04:08.844Z,34.90
2023-07-12T15:06:36.492Z,34.90
2023-07-12T15:09:08.469Z,34.90
2023-07-12T15:11:36.721Z,34.90
2023-07-12T15:14:04.635Z,34.80
2023-07-12T15:16:31.563Z,34.80
2023-07-12T15:18:58.601Z,34.70
2023-07-12T15:21:33.430Z,34.60
2023-07-12T15:24:00.528Z,34.50
2023-07-12T15:26:28.116Z,34.50
2023-07-12T15:28:55.150Z,34.50
2023-07-12T15:31:33.615Z,34.50
2023-07-12T15:34:03.398Z,34.40
2023-07-12T15:36:33.037Z,34.40
2023-07-12T15:39:00.050Z,34.40
2023-07-12T15:41:31.009Z,34.30
2023-07-12T15:43:59.191Z,34.20
2023-07-12T15:46:32.253Z,34.10
2023-07-12T15:48:59.966Z,34.10
2023-07-12T15:51:36.882Z,34.00
2023-07-12T15:54:27.968Z,34.00
2023-07-12T15:56:55.237Z,33.90
2023-07-12T15:59:27.811Z,33.90
2023-07-12T16:01:56.097Z,33.90
2023-07-12T16:04:25.232Z,33.80
2023-07-12T16:06:52.264Z,33.70
2023-07-12T16:09:19.287Z,33.70
2023-07-12T16:11:48.332Z,33.60
2023-07-12T16:14:24.154Z,33.60
2023-07-12T16:16:52.231Z,33.60
2023-07-12T16:19:19.865Z,33.50
2023-07-12T16:21:47.942Z,33.40
2023-07-12T16:24:17.131Z,33.30
2023-07-12T16:26:47.039Z,33.20
2023-07-12T16:29:14.173Z,33.20
2023-07-12T16:31:44.356Z,33.20
2023-07-12T16:34:20.721Z,33.10
2023-07-12T16:36:51.049Z,33.00
2023-07-12T16:39:19.791Z,32.90
2023-07-12T16:41:49.306Z,32.90
2023-07-12T16:44:19.314Z,32.80
2023-07-12T16:46:47.696Z,32.70
2023-07-12T16:49:18.189Z,32.70
2023-07-12T16:51:53.557Z,32.60
2023-07-12T16:54:21.833Z,32.60
2023-07-12T16:56:49.129Z,32.60
2023-07-12T16:59:16.193Z,32.60
2023-07-12T17:01:43.297Z,32.50
2023-07-12T17:04:16.720Z,32.40
2023-07-12T17:06:43.722Z,32.30
2023-07-12T17:09:23.938Z,32.20
2023-07-12T17:11:52.566Z,32.20
2023-07-12T17:14:19.769Z,32.10
2023-07-12T17:16:48.567Z,32.00
2023-07-12T17:19:15.722Z,32.00
2023-07-12T17:21:45.227Z,31.90
2023-07-12T17:24:15.349Z,31.90
2023-07-12T17:26:44.255Z,31.80
2023-07-12T17:29:15.400Z,31.70
2023-07-12T17:31:46.581Z,31.70
2023-07-12T17:34:35.412Z,31.60
2023-07-12T17:37:02.581Z,31.60
2023-07-12T17:39:33.519Z,31.50
2023-07-12T17:42:01.210Z,31.40
2023-07-12T17:44:28.317Z,31.40
2023-07-12T17:46:55.428Z,31.40
2023-07-12T17:49:22.581Z,31.20
2023-07-12T17:51:49.977Z,31.10
2023-07-12T17:54:18.062Z,31.10
2023-07-12T17:56:45.250Z,31.10
2023-07-12T17:59:14.437Z,31.00
2023-07-12T18:01:44.015Z,30.90
2023-07-12T18:04:15.177Z,30.90
2023-07-12T18:06:42.449Z,30.90
2023-07-12T18:09:09.501Z,30.80
2023-07-12T18:11:47.055Z,30.80
2023-07-12T18:14:23.147Z,30.80
2023-07-12T18:16:52.674Z,30.80
2023-07-12T18:19:19.906Z,30.70
2023-07-12T18:21:48.957Z,30.70
2023-07-12T18:24:21.066Z,30.70
2023-07-12T18:26:49.055Z,30.70
2023-07-12T18:29:16.136Z,30.60
2023-07-12T18:31:43.438Z,30.60
2023-07-12T18:34:12.374Z,30.50
2023-07-12T18:36:41.689Z,30.40
2023-07-12T18:39:10.421Z,30.40
2023-07-12T18:41:37.575Z,30.30
2023-07-12T18:44:04.789Z,30.30
2023-07-12T18:46:31.889Z,30.20
2023-07-12T18:49:00.035Z,30.20
2023-07-12T18:51:33.763Z,30.10
2023-07-12T18:54:01.981Z,30.00
2023-07-12T18:56:31.317Z,30.00
2023-07-12T18:59:01.306Z,29.90
2023-07-12T19:01:32.794Z,29.90
2023-07-12T19:04:03.023Z,29.90
2023-07-12T19:06:33.218Z,29.80
2023-07-12T19:09:03.866Z,29.80
2023-07-12T19:11:40.410Z,29.70
2023-07-12T19:14:18.443Z,29.60
2023-07-12T19:16:45.919Z,29.60
2023-07-12T19:19:12.974Z,29.60
2023-07-12T19:21:45.099Z,29.50
2023-07-12T19:24:13.091Z,29.50
2023-07-12T19:26:41.131Z,29.40
2023-07-12T19:29:09.016Z,29.40
2023-07-12T19:31:42.776Z,29.40
2023-07-12T19:34:18.639Z,29.40
2023-07-12T19:36:46.797Z,29.30
2023-07-12T19:39:14.714Z,29.30
2023-07-12T19:41:41.687Z,29.30
2023-07-12T19:44:08.779Z,29.30
2023-07-12T19:46:38.359Z,29.30
2023-07-12T19:49:05.394Z,29.30
2023-07-12T19:51:35.287Z,29.20
2023-07-12T19:54:04.193Z,29.30
2023-07-12T19:56:31.790Z,29.20
2023-07-12T19:59:01.747Z,29.20
2023-07-12T20:01:31.112Z,29.20
2023-07-12T20:03:59.882Z,29.20
2023-07-12T20:06:27.991Z,29.20
2023-07-12T20:08:56.554Z,29.20
2023-07-12T20:11:24.767Z,29.10
2023-07-12T20:13:53.045Z,29.10
2023-07-12T20:16:22.308Z,29.10
2023-07-12T20:18:49.938Z,29.10
2023-07-12T20:21:17.624Z,29.10
2023-07-12T20:23:45.489Z,29.10
2023-07-12T20:26:14.273Z,29.10
2023-07-12T20:28:43.787Z,29.10
2023-07-12T20:31:16.123Z,29.10
2023-07-12T20:33:43.217Z,29.00
2023-07-12T20:36:11.495Z,29.10
2023-07-12T20:38:38.865Z,29.10
2023-07-12T20:41:06.626Z,29.00
2023-07-12T20:43:33.956Z,29.00
2023-07-12T20:46:02.476Z,29.10
2023-07-12T20:48:35.104Z,29.10
2023-07-12T20:51:05.222Z,29.00
2023-07-12T20:53:32.866Z,29.00
2023-07-12T20:56:00.875Z,29.00
2023-07-12T20:58:31.008Z,29.00
2023-07-12T21:01:05.923Z,29.00
2023-07-12T21:03:33.288Z,29.00
2023-07-12T21:06:02.448Z,28.90
2023-07-12T21:08:30.620Z,29.00
2023-07-12T21:11:01.694Z,28.90
2023-07-12T21:13:29.794Z,28.90
2023-07-12T21:16:02.164Z,28.90
2023-07-12T21:18:29.929Z,28.90
2023-07-12T21:20:59.349Z,28.80
2023-07-12T21:23:26.979Z,28.80
2023-07-12T21:25:53.974Z,28.80
2023-07-12T21:28:21.224Z,28.70
2023-07-12T21:30:50.444Z,28.70
2023-07-12T21:33:18.791Z,28.60
2023-07-12T21:35:52.711Z,28.70
2023-07-12T21:38:21.909Z,28.60
2023-07-12T21:40:49.652Z,28.60
2023-07-12T21:43:17.416Z,28.50
2023-07-12T21:45:44.637Z,28.50
2023-07-12T21:48:11.861Z,28.50
2023-07-12T21:50:41.097Z,28.40
2023-07-12T21:53:08.512Z,28.40
2023-07-12T21:55:35.437Z,28.30
2023-07-12T21:58:02.410Z,28.30
2023-07-12T22:00:29.625Z,28.30
2023-07-12T22:02:56.934Z,28.30
2023-07-12T22:05:24.574Z,28.30
2023-07-12T22:08:02.916Z,28.20
2023-07-12T22:10:31.311Z,28.20
2023-07-12T22:12:59.029Z,28.20
2023-07-12T22:15:27.478Z,28.20
2023-07-12T22:17:54.864Z,28.20
2023-07-12T22:20:23.078Z,28.20
2023-07-12T22:22:51.163Z,28.10
2023-07-12T22:25:19.147Z,28.10
2023-07-12T22:27:47.883Z,28.00
2023-07-12T22:30:24.885Z,28.00
2023-07-12T22:32:52.362Z,27.90
2023-07-12T22:35:19.520Z,27.90
2023-07-12T22:37:52.283Z,27.90
2023-07-12T22:40:19.964Z,27.80
2023-07-12T22:42:48.123Z,27.80
2023-07-12T22:45:15.789Z,27.80
2023-07-12T22:47:42.989Z,27.80
2023-07-12T22:50:11.172Z,27.80
2023-07-12T22:52:38.456Z,27.80
2023-07-12T22:55:06.411Z,27.80
2023-07-12T22:57:33.739Z,27.70
2023-07-12T23:00:01.090Z,27.70
2023-07-12T23:02:28.175Z,27.70
2023-07-12T23:04:55.191Z,27.70
2023-07-12T23:07:22.293Z,27.70
2023-07-12T23:09:51.119Z,27.60
2023-07-12T23:12:18.598Z,27.60
2023-07-12T23:14:45.578Z,27.60
2023-07-12T23:17:13.457Z,27.60
2023-07-12T23:19:41.322Z,27.60
2023-07-12T23:22:14.736Z,27.60
2023-07-12T23:24:41.863Z,27.60
2023-07-12T23:27:11.281Z,27.60
2023-07-12T23:29:39.328Z,27.50
2023-07-12T23:32:07.435Z,27.50
2023-07-12T23:34:34.588Z,27.50
2023-07-12T23:37:02.819Z,27.50
2023-07-12T23:39:30.398Z,27.50
2023-07-12T23:42:03.525Z,27.50
2023-07-12T23:44:32.641Z,27.50
2023-07-12T23:47:00.539Z,27.50
2023-07-12T23:49:30.309Z,27.50
2023-07-12T23:51:57.951Z,27.60
2023-07-12T23:54:25.336Z,27.60
2023-07-12T23:56:55.942Z,27.70
2023-07-12T23:59:23.791Z,27.70
